Kezdőlap
METAR-TAF:

METAR-TAF

Repülőterek :

Nancy, Franciaország

földrajzi szélesség: 48-41N, földrajzi hosszúság: 006-13E, magasság: 225 m

Jelenlegi meteorológiai megfigyelések

A jelentés 27 perccel ezelõtt készült, 07:00 UTC
Dél-délnyugati szél 8 kt
Hőmérséklet 6°C
Páratartalom 93%
Légköri nyomás 1006 hPa
Látótávolság: 7000 m
esõ

METAR: LFSN 280700Z AUTO 20008KT 7000 RA OVC007/// ///TCU 06/05 Q1006

Idő: 08:27 (07:27 UTC)


TAF: hiányzik

Meteorológiai megfigyelések és előrejelzések több, mint 4000 repülőtéren (METAR és TAF jelentéseket).

A térképen piros és sárga pontok jelzik az elérhető meteorológiai állomásokat.

Mozgassa az egeret a pont fölött, hogy megjelenjen az állomás neve.

Azután kattintson az időjárási megfigyelések és előrejelzések megtekintéséhez.

A térkép megváltoztatása: kattintson a fekete keresztel jelölt zöld gombra ráközelítéshez, a vonallal jelölt zöld gombra távolításhoz, vagy a zöld nyilakra a szomszédos térképek eléréséhez.


METAR-TAF: